sensor_id;sensor_type;location;lat;lon;timestamp;pressure;altitude;pressure_sealevel;temperature
78961;BMP280;68362;45.970;12.646;2024-01-15T00:00:30;100214.06;;;1.53
78961;BMP280;68362;45.970;12.646;2024-01-15T00:01:53;100202.72;;;1.54
78961;BMP280;68362;45.970;12.646;2024-01-15T00:02:55;100199.72;;;1.34
78961;BMP280;68362;45.970;12.646;2024-01-15T00:03:57;100204.06;;;1.09
78961;BMP280;68362;45.970;12.646;2024-01-15T00:04:59;100201.50;;;1.01
78961;BMP280;68362;45.970;12.646;2024-01-15T00:06:02;100203.75;;;1.12
78961;BMP280;68362;45.970;12.646;2024-01-15T00:07:05;100194.72;;;1.24
78961;BMP280;68362;45.970;12.646;2024-01-15T00:08:07;100198.56;;;1.37
78961;BMP280;68362;45.970;12.646;2024-01-15T00:09:09;100199.56;;;1.44
78961;BMP280;68362;45.970;12.646;2024-01-15T00:10:12;100197.44;;;1.39
78961;BMP280;68362;45.970;12.646;2024-01-15T00:11:14;100204.72;;;1.44
78961;BMP280;68362;45.970;12.646;2024-01-15T00:12:16;100205.69;;;1.43
78961;BMP280;68362;45.970;12.646;2024-01-15T00:13:18;100205.53;;;1.44
78961;BMP280;68362;45.970;12.646;2024-01-15T00:14:21;100200.53;;;1.35
78961;BMP280;68362;45.970;12.646;2024-01-15T00:15:23;100198.09;;;1.33
78961;BMP280;68362;45.970;12.646;2024-01-15T00:16:25;100199.22;;;1.30
78961;BMP280;68362;45.970;12.646;2024-01-15T00:17:27;100198.56;;;1.37
78961;BMP280;68362;45.970;12.646;2024-01-15T00:18:30;100191.66;;;1.37
78961;BMP280;68362;45.970;12.646;2024-01-15T00:19:33;100188.56;;;1.42
78961;BMP280;68362;45.970;12.646;2024-01-15T00:20:35;100186.78;;;1.42
78961;BMP280;68362;45.970;12.646;2024-01-15T00:21:37;100183.19;;;1.51
78961;BMP280;68362;45.970;12.646;2024-01-15T00:22:40;100172.91;;;1.43
78961;BMP280;68362;45.970;12.646;2024-01-15T00:23:43;100178.88;;;1.44
78961;BMP280;68362;45.970;12.646;2024-01-15T00:24:48;100180.94;;;1.48
78961;BMP280;68362;45.970;12.646;2024-01-15T00:25:51;100176.06;;;1.62
78961;BMP280;68362;45.970;12.646;2024-01-15T00:26:53;100176.88;;;1.54
78961;BMP280;68362;45.970;12.646;2024-01-15T00:27:56;100168.66;;;1.50
78961;BMP280;68362;45.970;12.646;2024-01-15T00:28:58;100171.59;;;1.47
78961;BMP280;68362;45.970;12.646;2024-01-15T00:30:00;100161.09;;;1.49
78961;BMP280;68362;45.970;12.646;2024-01-15T00:31:04;100166.44;;;1.47
78961;BMP280;68362;45.970;12.646;2024-01-15T00:32:06;100168.34;;;1.45
78961;BMP280;68362;45.970;12.646;2024-01-15T00:33:08;100162.91;;;1.24
78961;BMP280;68362;45.970;12.646;2024-01-15T00:34:10;100162.94;;;0.99
78961;BMP280;68362;45.970;12.646;2024-01-15T00:35:13;100164.06;;;0.97
78961;BMP280;68362;45.970;12.646;2024-01-15T00:36:15;100162.13;;;0.91
78961;BMP280;68362;45.970;12.646;2024-01-15T00:37:18;100161.81;;;0.85
78961;BMP280;68362;45.970;12.646;2024-01-15T00:38:20;100156.66;;;0.85
78961;BMP280;68362;45.970;12.646;2024-01-15T00:39:23;100149.03;;;1.00
78961;BMP280;68362;45.970;12.646;2024-01-15T00:40:25;100146.13;;;1.12
78961;BMP280;68362;45.970;12.646;2024-01-15T00:41:27;100140.97;;;1.03
78961;BMP280;68362;45.970;12.646;2024-01-15T00:42:29;100143.41;;;0.97
78961;BMP280;68362;45.970;12.646;2024-01-15T00:43:32;100139.81;;;0.90
78961;BMP280;68362;45.970;12.646;2024-01-15T00:44:34;100137.25;;;0.90
78961;BMP280;68362;45.970;12.646;2024-01-15T00:45:36;100137.09;;;0.83
78961;BMP280;68362;45.970;12.646;2024-01-15T00:46:48;100143.06;;;0.83
78961;BMP280;68362;45.970;12.646;2024-01-15T00:47:50;100134.38;;;0.84
78961;BMP280;68362;45.970;12.646;2024-01-15T00:48:52;100127.84;;;1.13
78961;BMP280;68362;45.970;12.646;2024-01-15T00:49:54;100127.38;;;1.26
78961;BMP280;68362;45.970;12.646;2024-01-15T00:50:56;100127.13;;;1.52
78961;BMP280;68362;45.970;12.646;2024-01-15T00:51:59;100130.84;;;1.49
78961;BMP280;68362;45.970;12.646;2024-01-15T00:53:01;100127.50;;;1.41
78961;BMP280;68362;45.970;12.646;2024-01-15T00:54:03;100125.94;;;1.23
78961;BMP280;68362;45.970;12.646;2024-01-15T00:55:06;100119.97;;;0.98
78961;BMP280;68362;45.970;12.646;2024-01-15T00:56:08;100121.47;;;0.84
78961;BMP280;68362;45.970;12.646;2024-01-15T00:57:10;100117.44;;;0.82
78961;BMP280;68362;45.970;12.646;2024-01-15T00:58:12;100120.47;;;0.77
78961;BMP280;68362;45.970;12.646;2024-01-15T00:59:14;100120.81;;;0.82
78961;BMP280;68362;45.970;12.646;2024-01-15T01:00:17;100118.09;;;0.84
78961;BMP280;68362;45.970;12.646;2024-01-15T01:01:19;100124.81;;;0.69
78961;BMP280;68362;45.970;12.646;2024-01-15T01:02:22;100121.09;;;0.47
78961;BMP280;68362;45.970;12.646;2024-01-15T01:03:24;100117.56;;;0.40
78961;BMP280;68362;45.970;12.646;2024-01-15T01:04:27;100122.41;;;0.51
78961;BMP280;68362;45.970;12.646;2024-01-15T01:05:29;100116.78;;;0.80
78961;BMP280;68362;45.970;12.646;2024-01-15T01:06:31;100111.75;;;0.95
78961;BMP280;68362;45.970;12.646;2024-01-15T01:07:35;100114.34;;;1.03
78961;BMP280;68362;45.970;12.646;2024-01-15T01:08:38;100110.56;;;1.22
78961;BMP280;68362;45.970;12.646;2024-01-15T01:09:40;100110.53;;;1.38
78961;BMP280;68362;45.970;12.646;2024-01-15T01:10:43;100120.09;;;1.38
78961;BMP280;68362;45.970;12.646;2024-01-15T01:11:45;100109.28;;;1.34
78961;BMP280;68362;45.970;12.646;2024-01-15T01:12:47;100118.13;;;1.40
78961;BMP280;68362;45.970;12.646;2024-01-15T01:13:49;100118.63;;;1.43
78961;BMP280;68362;45.970;12.646;2024-01-15T01:14:51;100106.50;;;1.44
78961;BMP280;68362;45.970;12.646;2024-01-15T01:15:53;100103.13;;;1.43
78961;BMP280;68362;45.970;12.646;2024-01-15T01:16:56;100102.94;;;1.37
78961;BMP280;68362;45.970;12.646;2024-01-15T01:17:58;100093.78;;;1.18
78961;BMP280;68362;45.970;12.646;2024-01-15T01:19:00;100098.66;;;1.04
78961;BMP280;68362;45.970;12.646;2024-01-15T01:20:03;100096.91;;;0.97
78961;BMP280;68362;45.970;12.646;2024-01-15T01:21:08;100096.09;;;0.96
78961;BMP280;68362;45.970;12.646;2024-01-15T01:22:11;100092.22;;;0.92
78961;BMP280;68362;45.970;12.646;2024-01-15T01:23:13;100099.00;;;0.93
78961;BMP280;68362;45.970;12.646;2024-01-15T01:24:15;100102.72;;;0.91
78961;BMP280;68362;45.970;12.646;2024-01-15T01:25:17;100092.66;;;1.12
78961;BMP280;68362;45.970;12.646;2024-01-15T01:26:19;100107.19;;;1.13
78961;BMP280;68362;45.970;12.646;2024-01-15T01:27:21;100093.94;;;1.24
78961;BMP280;68362;45.970;12.646;2024-01-15T01:28:23;100097.75;;;1.37
78961;BMP280;68362;45.970;12.646;2024-01-15T01:29:26;100096.19;;;1.27
78961;BMP280;68362;45.970;12.646;2024-01-15T01:30:28;100093.75;;;1.34
78961;BMP280;68362;45.970;12.646;2024-01-15T01:31:30;100098.06;;;1.50
78961;BMP280;68362;45.970;12.646;2024-01-15T01:32:33;100097.72;;;1.53
78961;BMP280;68362;45.970;12.646;2024-01-15T01:33:35;100097.38;;;1.56
78961;BMP280;68362;45.970;12.646;2024-01-15T01:34:41;100094.94;;;1.63
78961;BMP280;68362;45.970;12.646;2024-01-15T01:35:44;100098.31;;;1.63
78961;BMP280;68362;45.970;12.646;2024-01-15T01:36:47;100089.63;;;1.64
78961;BMP280;68362;45.970;12.646;2024-01-15T01:37:49;100090.38;;;1.73
78961;BMP280;68362;45.970;12.646;2024-01-15T01:38:52;100086.16;;;1.72
78961;BMP280;68362;45.970;12.646;2024-01-15T01:39:54;100083.00;;;1.53
78961;BMP280;68362;45.970;12.646;2024-01-15T01:40:56;100087.13;;;1.31
78961;BMP280;68362;45.970;12.646;2024-01-15T01:41:59;100078.63;;;1.15
78961;BMP280;68362;45.970;12.646;2024-01-15T01:43:03;100086.41;;;1.06
78961;BMP280;68362;45.970;12.646;2024-01-15T01:44:06;100082.66;;;1.17
78961;BMP280;68362;45.970;12.646;2024-01-15T01:45:09;100080.44;;;1.06
78961;BMP280;68362;45.970;12.646;2024-01-15T01:46:12;100077.22;;;0.96
78961;BMP280;68362;45.970;12.646;2024-01-15T01:47:14;100087.56;;;0.79
78961;BMP280;68362;45.970;12.646;2024-01-15T01:48:16;100083.38;;;0.70
78961;BMP280;68362;45.970;12.646;2024-01-15T01:49:19;100085.47;;;0.67
78961;BMP280;68362;45.970;12.646;2024-01-15T01:50:22;100087.75;;;0.61
78961;BMP280;68362;45.970;12.646;2024-01-15T01:51:24;100085.16;;;0.61
78961;BMP280;68362;45.970;12.646;2024-01-15T01:52:27;100080.47;;;0.73
78961;BMP280;68362;45.970;12.646;2024-01-15T01:53:29;100074.94;;;1.01
78961;BMP280;68362;45.970;12.646;2024-01-15T01:54:34;100072.00;;;1.12
78961;BMP280;68362;45.970;12.646;2024-01-15T01:55:38;100072.00;;;1.12
78961;BMP280;68362;45.970;12.646;2024-01-15T01:56:43;100068.63;;;1.12
78961;BMP280;68362;45.970;12.646;2024-01-15T01:57:45;100068.09;;;1.24
78961;BMP280;68362;45.970;12.646;2024-01-15T01:58:48;100071.59;;;1.40
78961;BMP280;68362;45.970;12.646;2024-01-15T01:59:50;100061.25;;;1.40
78961;BMP280;68362;45.970;12.646;2024-01-15T02:00:53;100065.28;;;1.42
78961;BMP280;68362;45.970;12.646;2024-01-15T02:01:55;100058.19;;;1.44
78961;BMP280;68362;45.970;12.646;2024-01-15T02:02:58;100061.09;;;1.41
78961;BMP280;68362;45.970;12.646;2024-01-15T02:04:00;100054.91;;;1.19
78961;BMP280;68362;45.970;12.646;2024-01-15T02:05:04;100047.13;;;1.19
78961;BMP280;68362;45.970;12.646;2024-01-15T02:06:06;100040.84;;;1.14
78961;BMP280;68362;45.970;12.646;2024-01-15T02:07:09;100039.06;;;1.14
78961;BMP280;68362;45.970;12.646;2024-01-15T02:08:12;100038.28;;;1.14
78961;BMP280;68362;45.970;12.646;2024-01-15T02:09:14;100031.94;;;1.16
78961;BMP280;68362;45.970;12.646;2024-01-15T02:10:17;100025.50;;;1.20
78961;BMP280;68362;45.970;12.646;2024-01-15T02:11:19;100028.41;;;1.25
78961;BMP280;68362;45.970;12.646;2024-01-15T02:12:21;100030.00;;;1.10
78961;BMP280;68362;45.970;12.646;2024-01-15T02:13:23;100018.06;;;1.09
78961;BMP280;68362;45.970;12.646;2024-01-15T02:14:26;100020.00;;;1.23
78961;BMP280;68362;45.970;12.646;2024-01-15T02:15:28;100024.44;;;1.38
78961;BMP280;68362;45.970;12.646;2024-01-15T02:16:30;100021.88;;;1.38
78961;BMP280;68362;45.970;12.646;2024-01-15T02:17:32;100023.13;;;1.42
78961;BMP280;68362;45.970;12.646;2024-01-15T02:18:46;100024.75;;;1.43
78961;BMP280;68362;45.970;12.646;2024-01-15T02:19:49;100024.44;;;1.46
78961;BMP280;68362;45.970;12.646;2024-01-15T02:20:52;100022.66;;;1.46
78961;BMP280;68362;45.970;12.646;2024-01-15T02:21:54;100002.41;;;1.50
78961;BMP280;68362;45.970;12.646;2024-01-15T02:23:16;100008.75;;;1.47
78961;BMP280;68362;45.970;12.646;2024-01-15T02:24:19;100016.44;;;1.24
78961;BMP280;68362;45.970;12.646;2024-01-15T02:25:21;100013.84;;;1.16
78961;BMP280;68362;45.970;12.646;2024-01-15T02:26:23;100008.59;;;1.01
78961;BMP280;68362;45.970;12.646;2024-01-15T02:27:25;100010.13;;;1.27
78961;BMP280;68362;45.970;12.646;2024-01-15T02:28:28;100003.44;;;1.41
78961;BMP280;68362;45.970;12.646;2024-01-15T02:29:30;100001.81;;;1.40
78961;BMP280;68362;45.970;12.646;2024-01-15T02:30:34;100000.22;;;1.39
78961;BMP280;68362;45.970;12.646;2024-01-15T02:31:38;100005.22;;;1.40
78961;BMP280;68362;45.970;12.646;2024-01-15T02:32:41;100006.81;;;1.41
78961;BMP280;68362;45.970;12.646;2024-01-15T02:33:43;100009.09;;;1.36
78961;BMP280;68362;45.970;12.646;2024-01-15T02:34:48;100006.56;;;1.28
78961;BMP280;68362;45.970;12.646;2024-01-15T02:35:50;100008.19;;;1.29
78961;BMP280;68362;45.970;12.646;2024-01-15T02:36:53;100010.47;;;1.24
78961;BMP280;68362;45.970;12.646;2024-01-15T02:37:55;100009.00;;;1.21
78961;BMP280;68362;45.970;12.646;2024-01-15T02:38:57;100013.69;;;1.26
78961;BMP280;68362;45.970;12.646;2024-01-15T02:39:59;100012.19;;;1.31
78961;BMP280;68362;45.970;12.646;2024-01-15T02:41:02;100012.56;;;1.28
78961;BMP280;68362;45.970;12.646;2024-01-15T02:42:05;100005.00;;;1.11
78961;BMP280;68362;45.970;12.646;2024-01-15T02:43:07;100006.25;;;0.67
78961;BMP280;68362;45.970;12.646;2024-01-15T02:44:09;100002.41;;;0.47
78961;BMP280;68362;45.970;12.646;2024-01-15T02:45:11;99999.03;;;0.38
78961;BMP280;68362;45.970;12.646;2024-01-15T02:46:13;99997.88;;;0.65
78961;BMP280;68362;45.970;12.646;2024-01-15T02:47:16;99996.72;;;0.68
78961;BMP280;68362;45.970;12.646;2024-01-15T02:48:18;99997.69;;;0.67
78961;BMP280;68362;45.970;12.646;2024-01-15T02:49:21;99995.91;;;0.75
78961;BMP280;68362;45.970;12.646;2024-01-15T02:50:23;99996.53;;;0.85
78961;BMP280;68362;45.970;12.646;2024-01-15T02:51:25;99991.66;;;0.99
78961;BMP280;68362;45.970;12.646;2024-01-15T02:52:27;100000.53;;;0.96
78961;BMP280;68362;45.970;12.646;2024-01-15T02:53:29;99998.84;;;0.56
78961;BMP280;68362;45.970;12.646;2024-01-15T02:54:31;99992.88;;;0.31
78961;BMP280;68362;45.970;12.646;2024-01-15T02:55:33;99993.72;;;0.15
78961;BMP280;68362;45.970;12.646;2024-01-15T02:56:36;99993.88;;;0.13
78961;BMP280;68362;45.970;12.646;2024-01-15T02:57:38;99992.75;;;0.32
78961;BMP280;68362;45.970;12.646;2024-01-15T02:58:40;99985.28;;;0.46
78961;BMP280;68362;45.970;12.646;2024-01-15T02:59:42;99983.22;;;0.25
78961;BMP280;68362;45.970;12.646;2024-01-15T03:00:45;99976.63;;;0.14
78961;BMP280;68362;45.970;12.646;2024-01-15T03:01:48;99973.88;;;0.07
78961;BMP280;68362;45.970;12.646;2024-01-15T03:02:51;99972.75;;;0.10
78961;BMP280;68362;45.970;12.646;2024-01-15T03:03:53;99959.53;;;0.13
78961;BMP280;68362;45.970;12.646;2024-01-15T03:04:57;99965.34;;;0.15
78961;BMP280;68362;45.970;12.646;2024-01-15T03:06:01;99961.63;;;0.18
78961;BMP280;68362;45.970;12.646;2024-01-15T03:07:03;99958.25;;;0.25
78961;BMP280;68362;45.970;12.646;2024-01-15T03:08:05;99950.16;;;0.20
78961;BMP280;68362;45.970;12.646;2024-01-15T03:09:08;99946.00;;;0.03
78961;BMP280;68362;45.970;12.646;2024-01-15T03:10:11;99945.97;;;-0.05
78961;BMP280;68362;45.970;12.646;2024-01-15T03:11:13;99947.78;;;0.02
78961;BMP280;68362;45.970;12.646;2024-01-15T03:12:15;99945.66;;;0.06
78961;BMP280;68362;45.970;12.646;2024-01-15T03:13:17;99946.28;;;0.24
78961;BMP280;68362;45.970;12.646;2024-01-15T03:14:21;99941.13;;;0.49
78961;BMP280;68362;45.970;12.646;2024-01-15T03:15:26;99939.50;;;0.56
78961;BMP280;68362;45.970;12.646;2024-01-15T03:16:28;99937.22;;;0.53
78961;BMP280;68362;45.970;12.646;2024-01-15T03:17:30;99937.81;;;0.71
78961;BMP280;68362;45.970;12.646;2024-01-15T03:18:32;99932.97;;;0.68
78961;BMP280;68362;45.970;12.646;2024-01-15T03:19:35;99925.22;;;0.76
78961;BMP280;68362;45.970;12.646;2024-01-15T03:20:38;99924.25;;;0.85
78961;BMP280;68362;45.970;12.646;2024-01-15T03:21:39;99914.25;;;0.82
78961;BMP280;68362;45.970;12.646;2024-01-15T03:22:42;99919.88;;;0.78
78961;BMP280;68362;45.970;12.646;2024-01-15T03:23:44;99921.28;;;0.49
78961;BMP280;68362;45.970;12.646;2024-01-15T03:24:46;99912.03;;;0.63
78961;BMP280;68362;45.970;12.646;2024-01-15T03:25:48;99915.72;;;0.69
78961;BMP280;68362;45.970;12.646;2024-01-15T03:26:51;99913.34;;;0.43
78961;BMP280;68362;45.970;12.646;2024-01-15T03:27:53;99915.16;;;0.34
78961;BMP280;68362;45.970;12.646;2024-01-15T03:28:55;99917.25;;;0.22
78961;BMP280;68362;45.970;12.646;2024-01-15T03:29:57;99926.97;;;0.12
78961;BMP280;68362;45.970;12.646;2024-01-15T03:30:59;99929.03;;;0.25
78961;BMP280;68362;45.970;12.646;2024-01-15T03:32:02;99920.84;;;0.37
78961;BMP280;68362;45.970;12.646;2024-01-15T03:33:04;99919.97;;;0.61
78961;BMP280;68362;45.970;12.646;2024-01-15T03:34:06;99922.66;;;0.68
78961;BMP280;68362;45.970;12.646;2024-01-15T03:35:09;99920.22;;;0.75
78961;BMP280;68362;45.970;12.646;2024-01-15T03:36:11;99922.31;;;0.79
78961;BMP280;68362;45.970;12.646;2024-01-15T03:37:13;99915.50;;;0.87
78961;BMP280;68362;45.970;12.646;2024-01-15T03:38:15;99915.66;;;0.93
78961;BMP280;68362;45.970;12.646;2024-01-15T03:39:18;99911.19;;;0.87
78961;BMP280;68362;45.970;12.646;2024-01-15T03:40:20;99908.47;;;0.72
78961;BMP280;68362;45.970;12.646;2024-01-15T03:41:24;99915.28;;;0.65
78961;BMP280;68362;45.970;12.646;2024-01-15T03:42:26;99909.47;;;0.63
78961;BMP280;68362;45.970;12.646;2024-01-15T03:43:29;99905.28;;;0.62
78961;BMP280;68362;45.970;12.646;2024-01-15T03:44:31;99904.00;;;0.50
78961;BMP280;68362;45.970;12.646;2024-01-15T03:45:33;99909.94;;;0.67
78961;BMP280;68362;45.970;12.646;2024-01-15T03:46:35;99909.09;;;0.74
78961;BMP280;68362;45.970;12.646;2024-01-15T03:47:37;99906.19;;;0.77
78961;BMP280;68362;45.970;12.646;2024-01-15T03:48:39;99912.00;;;0.79
78961;BMP280;68362;45.970;12.646;2024-01-15T03:49:42;99913.94;;;0.77
78961;BMP280;68362;45.970;12.646;2024-01-15T03:50:44;99916.69;;;0.76
78961;BMP280;68362;45.970;12.646;2024-01-15T03:51:47;99912.66;;;0.73
78961;BMP280;68362;45.970;12.646;2024-01-15T03:52:49;99916.38;;;0.71
78961;BMP280;68362;45.970;12.646;2024-01-15T03:53:51;99917.16;;;0.71
78961;BMP280;68362;45.970;12.646;2024-01-15T03:54:54;99917.97;;;0.72
78961;BMP280;68362;45.970;12.646;2024-01-15T03:55:56;99905.56;;;0.67
78961;BMP280;68362;45.970;12.646;2024-01-15T03:56:58;99909.94;;;0.67
78961;BMP280;68362;45.970;12.646;2024-01-15T03:58:01;99911.09;;;0.64
78961;BMP280;68362;45.970;12.646;2024-01-15T03:59:03;99903.69;;;0.53
78961;BMP280;68362;45.970;12.646;2024-01-15T04:00:06;99901.78;;;0.38
78961;BMP280;68362;45.970;12.646;2024-01-15T04:01:09;99895.47;;;0.41
78961;BMP280;68362;45.970;12.646;2024-01-15T04:02:11;99896.28;;;0.42
78961;BMP280;68362;45.970;12.646;2024-01-15T04:03:14;99896.97;;;0.35
78961;BMP280;68362;45.970;12.646;2024-01-15T04:04:17;99897.75;;;0.28
78961;BMP280;68362;45.970;12.646;2024-01-15T04:05:20;99897.06;;;0.42
78961;BMP280;68362;45.970;12.646;2024-01-15T04:06:22;99894.81;;;0.47
78961;BMP280;68362;45.970;12.646;2024-01-15T04:07:24;99890.94;;;0.51
78961;BMP280;68362;45.970;12.646;2024-01-15T04:08:27;99893.22;;;0.46
78961;BMP280;68362;45.970;12.646;2024-01-15T04:09:29;99888.06;;;0.46
78961;BMP280;68362;45.970;12.646;2024-01-15T04:10:31;99889.19;;;0.52
78961;BMP280;68362;45.970;12.646;2024-01-15T04:11:33;99883.03;;;0.53
78961;BMP280;68362;45.970;12.646;2024-01-15T04:12:35;99881.09;;;0.55
78961;BMP280;68362;45.970;12.646;2024-01-15T04:13:38;99879.56;;;0.21
78961;BMP280;68362;45.970;12.646;2024-01-15T04:14:43;99878.63;;;-0.02
78961;BMP280;68362;45.970;12.646;2024-01-15T04:15:45;99877.97;;;-0.04
78961;BMP280;68362;45.970;12.646;2024-01-15T04:16:47;99881.38;;;-0.04
78961;BMP280;68362;45.970;12.646;2024-01-15T04:17:49;99885.38;;;-0.01
78961;BMP280;68362;45.970;12.646;2024-01-15T04:18:52;99883.44;;;-0.07
78961;BMP280;68362;45.970;12.646;2024-01-15T04:19:54;99878.63;;;-0.02
78961;BMP280;68362;45.970;12.646;2024-01-15T04:20:57;99881.03;;;-0.01
78961;BMP280;68362;45.970;12.646;2024-01-15T04:21:59;99878.31;;;0.09
78961;BMP280;68362;45.970;12.646;2024-01-15T04:23:01;99881.19;;;-0.11
78961;BMP280;68362;45.970;12.646;2024-01-15T04:24:03;99867.03;;;-0.23
78961;BMP280;68362;45.970;12.646;2024-01-15T04:25:06;99868.81;;;-0.23
78961;BMP280;68362;45.970;12.646;2024-01-15T04:26:08;99867.97;;;-0.40
78961;BMP280;68362;45.970;12.646;2024-01-15T04:27:10;99865.91;;;-0.45
78961;BMP280;68362;45.970;12.646;2024-01-15T04:28:12;99870.56;;;-0.57
78961;BMP280;68362;45.970;12.646;2024-01-15T04:29:15;99857.03;;;-0.59
78961;BMP280;68362;45.970;12.646;2024-01-15T04:30:17;99857.34;;;-0.62
78961;BMP280;68362;45.970;12.646;2024-01-15T04:31:23;99862.16;;;-0.59
78961;BMP280;68362;45.970;12.646;2024-01-15T04:32:25;99865.50;;;-0.74
78961;BMP280;68362;45.970;12.646;2024-01-15T04:33:28;99855.53;;;-0.69
78961;BMP280;68362;45.970;12.646;2024-01-15T04:34:30;99858.44;;;-0.64
78961;BMP280;68362;45.970;12.646;2024-01-15T04:35:33;99858.00;;;-0.51
78961;BMP280;68362;45.970;12.646;2024-01-15T04:36:39;99854.41;;;-0.67
78961;BMP280;68362;45.970;12.646;2024-01-15T04:37:43;99850.38;;;-0.69
78961;BMP280;68362;45.970;12.646;2024-01-15T04:38:45;99847.97;;;-0.71
78961;BMP280;68362;45.970;12.646;2024-01-15T04:39:47;99846.97;;;-0.78
78961;BMP280;68362;45.970;12.646;2024-01-15T04:40:49;99851.66;;;-0.73
78961;BMP280;68362;45.970;12.646;2024-01-15T04:41:51;99842.66;;;-0.69
78961;BMP280;68362;45.970;12.646;2024-01-15T04:42:54;99854.28;;;-0.57
78961;BMP280;68362;45.970;12.646;2024-01-15T04:43:56;99849.94;;;-0.40
78961;BMP280;68362;45.970;12.646;2024-01-15T04:44:59;99844.81;;;-0.24
78961;BMP280;68362;45.970;12.646;2024-01-15T04:46:01;99856.53;;;-0.05
78961;BMP280;68362;45.970;12.646;2024-01-15T04:47:05;99846.56;;;0.00
78961;BMP280;68362;45.970;12.646;2024-01-15T04:48:07;99852.66;;;0.07
78961;BMP280;68362;45.970;12.646;2024-01-15T04:49:09;99854.75;;;0.12
78961;BMP280;68362;45.970;12.646;2024-01-15T04:50:12;99847.69;;;0.14
78961;BMP280;68362;45.970;12.646;2024-01-15T04:51:13;99844.81;;;-0.24
78961;BMP280;68362;45.970;12.646;2024-01-15T04:52:16;99850.91;;;-0.33
78961;BMP280;68362;45.970;12.646;2024-01-15T04:53:18;99844.47;;;-0.13
78961;BMP280;68362;45.970;12.646;2024-01-15T04:54:20;99847.69;;;-0.02
78961;BMP280;68362;45.970;12.646;2024-01-15T04:55:22;99847.34;;;0.01
78961;BMP280;68362;45.970;12.646;2024-01-15T04:56:24;99846.59;;;-0.24
78961;BMP280;68362;45.970;12.646;2024-01-15T04:57:26;99841.06;;;-0.38
78961;BMP280;68362;45.970;12.646;2024-01-15T04:58:29;99851.56;;;-0.47
78961;BMP280;68362;45.970;12.646;2024-01-15T04:59:31;99853.47;;;-0.25
78961;BMP280;68362;45.970;12.646;2024-01-15T05:00:33;99848.97;;;-0.23
78961;BMP280;68362;45.970;12.646;2024-01-15T05:01:35;99856.22;;;-0.10
78961;BMP280;68362;45.970;12.646;2024-01-15T05:02:38;99861.22;;;-0.00
78961;BMP280;68362;45.970;12.646;2024-01-15T05:03:40;99860.25;;;0.01
78961;BMP280;68362;45.970;12.646;2024-01-15T05:04:42;99857.66;;;0.01
78961;BMP280;68362;45.970;12.646;2024-01-15T05:05:44;99856.22;;;-0.02
78961;BMP280;68362;45.970;12.646;2024-01-15T05:06:46;99845.75;;;-0.00
78961;BMP280;68362;45.970;12.646;2024-01-15T05:07:48;99844.94;;;-0.01
78961;BMP280;68362;45.970;12.646;2024-01-15T05:08:51;99851.88;;;-0.26
78961;BMP280;68362;45.970;12.646;2024-01-15T05:09:53;99849.94;;;-0.40
78961;BMP280;68362;45.970;12.646;2024-01-15T05:10:55;99848.34;;;-0.49
78961;BMP280;68362;45.970;12.646;2024-01-15T05:11:57;99851.88;;;-0.59
78961;BMP280;68362;45.970;12.646;2024-01-15T05:12:59;99856.06;;;-0.33
78961;BMP280;68362;45.970;12.646;2024-01-15T05:14:01;99847.38;;;-0.32
78961;BMP280;68362;45.970;12.646;2024-01-15T05:15:04;99839.94;;;-0.43
78961;BMP280;68362;45.970;12.646;2024-01-15T05:16:06;99830.78;;;-0.62
78961;BMP280;68362;45.970;12.646;2024-01-15T05:17:09;99837.19;;;-0.74
78961;BMP280;68362;45.970;12.646;2024-01-15T05:18:12;99834.94;;;-0.69
78961;BMP280;68362;45.970;12.646;2024-01-15T05:19:15;99833.84;;;-0.42
78961;BMP280;68362;45.970;12.646;2024-01-15T05:20:17;99837.41;;;-0.27
78961;BMP280;68362;45.970;12.646;2024-01-15T05:21:19;99829.50;;;-0.25
78961;BMP280;68362;45.970;12.646;2024-01-15T05:22:21;99829.63;;;-0.43
78961;BMP280;68362;45.970;12.646;2024-01-15T05:23:27;99833.31;;;-0.70
78961;BMP280;68362;45.970;12.646;2024-01-15T05:24:29;99837.34;;;-0.84
78961;BMP280;68362;45.970;12.646;2024-01-15T05:25:31;99828.63;;;-0.75
78961;BMP280;68362;45.970;12.646;2024-01-15T05:26:33;99828.38;;;-0.56
78961;BMP280;68362;45.970;12.646;2024-01-15T05:27:35;99827.72;;;-0.58
78961;BMP280;68362;45.970;12.646;2024-01-15T05:28:37;99823.88;;;-0.53
78961;BMP280;68362;45.970;12.646;2024-01-15T05:29:39;99823.81;;;-0.70
78961;BMP280;68362;45.970;12.646;2024-01-15T05:30:41;99817.72;;;-0.77
78961;BMP280;68362;45.970;12.646;2024-01-15T05:31:44;99820.94;;;-0.67
78961;BMP280;68362;45.970;12.646;2024-01-15T05:32:46;99816.75;;;-0.68
78961;BMP280;68362;45.970;12.646;2024-01-15T05:33:49;99823.50;;;-0.67
78961;BMP280;68362;45.970;12.646;2024-01-15T05:34:51;99810.66;;;-0.50
78961;BMP280;68362;45.970;12.646;2024-01-15T05:35:54;99817.09;;;-0.38
78961;BMP280;68362;45.970;12.646;2024-01-15T05:36:57;99822.88;;;-0.28
78961;BMP280;68362;45.970;12.646;2024-01-15T05:37:59;99816.13;;;-0.21
78961;BMP280;68362;45.970;12.646;2024-01-15T05:39:01;99820.31;;;-0.28
78961;BMP280;68362;45.970;12.646;2024-01-15T05:40:04;99816.75;;;-0.35
78961;BMP280;68362;45.970;12.646;2024-01-15T05:41:07;99826.09;;;-0.59
78961;BMP280;68362;45.970;12.646;2024-01-15T05:42:09;99822.56;;;-0.58
78961;BMP280;68362;45.970;12.646;2024-01-15T05:43:11;99836.69;;;-0.70
78961;BMP280;68362;45.970;12.646;2024-01-15T05:44:13;99836.75;;;-0.53
78961;BMP280;68362;45.970;12.646;2024-01-15T05:45:15;99827.06;;;-0.43
78961;BMP280;68362;45.970;12.646;2024-01-15T05:46:17;99829.66;;;-0.60
78961;BMP280;68362;45.970;12.646;2024-01-15T05:47:19;99830.94;;;-0.72
78961;BMP280;68362;45.970;12.646;2024-01-15T05:48:22;99833.28;;;-0.87
78961;BMP280;68362;45.970;12.646;2024-01-15T05:49:24;99831.34;;;-1.01
78961;BMP280;68362;45.970;12.646;2024-01-15T05:50:26;99824.25;;;-1.07
78961;BMP280;68362;45.970;12.646;2024-01-15T05:51:28;99824.69;;;-1.12
78961;BMP280;68362;45.970;12.646;2024-01-15T05:52:31;99820.22;;;-1.10
78961;BMP280;68362;45.970;12.646;2024-01-15T05:53:33;99824.72;;;-1.04
78961;BMP280;68362;45.970;12.646;2024-01-15T05:54:35;99821.16;;;-1.11
78961;BMP280;68362;45.970;12.646;2024-01-15T05:55:38;99824.06;;;-1.06
78961;BMP280;68362;45.970;12.646;2024-01-15T05:56:40;99832.41;;;-1.12